createdAt,value
2023-05-19T00:00:06.463Z,64.91
2023-05-19T00:01:06.493Z,64.81
2023-05-19T00:02:06.556Z,64.72
2023-05-19T00:03:06.732Z,64.81
2023-05-19T00:04:06.594Z,64.91
2023-05-19T00:05:06.613Z,64.62
2023-05-19T00:06:06.662Z,64.91
2023-05-19T00:07:06.678Z,65.20
2023-05-19T00:08:06.707Z,65.20
2023-05-19T00:09:06.739Z,65.20
2023-05-19T00:10:06.774Z,65.10
2023-05-19T00:11:06.805Z,65.30
2023-05-19T00:12:06.834Z,65.10
2023-05-19T00:13:06.865Z,65.10
2023-05-19T00:14:06.906Z,65.10
2023-05-19T00:15:06.930Z,65.01
2023-05-19T00:16:06.989Z,65.10
2023-05-19T00:17:07.000Z,65.45
2023-05-19T00:18:07.058Z,65.20
2023-05-19T00:19:07.111Z,65.45
2023-05-19T00:20:07.086Z,65.55
2023-05-19T00:21:07.115Z,65.55
2023-05-19T00:22:07.153Z,65.39
2023-05-19T00:23:07.176Z,65.26
2023-05-19T00:24:07.237Z,65.07
2023-05-19T00:25:07.243Z,65.17
2023-05-19T00:26:07.275Z,65.36
2023-05-19T00:27:07.310Z,65.39
2023-05-19T00:28:07.338Z,65.17
2023-05-19T00:29:07.375Z,65.17
2023-05-19T00:30:07.402Z,65.17
2023-05-19T00:31:07.426Z,65.07
2023-05-19T00:32:07.501Z,65.36
2023-05-19T00:33:07.548Z,65.17
2023-05-19T00:34:07.524Z,65.55
2023-05-19T00:35:07.556Z,65.55
2023-05-19T00:36:07.583Z,65.64
2023-05-19T00:37:07.626Z,65.93
2023-05-19T00:38:07.653Z,65.55
2023-05-19T00:39:07.691Z,66.02
2023-05-19T00:40:07.711Z,65.93
2023-05-19T00:41:07.748Z,65.93
2023-05-19T00:42:07.778Z,65.55
2023-05-19T00:43:07.820Z,65.74
2023-05-19T00:44:07.831Z,65.83
2023-05-19T00:45:07.870Z,65.55
2023-05-19T00:46:07.931Z,65.74
2023-05-19T00:47:07.974Z,65.93
2023-05-19T00:48:08.020Z,66.31
2023-05-19T00:49:07.995Z,66.78
2023-05-19T00:50:08.019Z,66.60
2023-05-19T00:51:08.056Z,66.12
2023-05-19T00:52:08.103Z,65.74
2023-05-19T00:53:08.130Z,65.74
2023-05-19T00:54:08.223Z,66.12
2023-05-19T00:55:08.179Z,66.31
2023-05-19T00:56:08.215Z,66.41
2023-05-19T00:57:08.245Z,66.88
2023-05-19T00:58:08.274Z,66.60
2023-05-19T00:59:08.304Z,66.60
2023-05-19T01:00:08.353Z,66.78
2023-05-19T01:01:08.491Z,66.60
2023-05-19T01:02:08.396Z,66.88
2023-05-19T01:03:08.569Z,66.50
2023-05-19T01:04:08.554Z,66.31
2023-05-19T01:05:08.508Z,66.85
2023-05-19T01:06:08.522Z,66.47
2023-05-19T01:07:08.589Z,66.66
2023-05-19T01:08:08.582Z,66.56
2023-05-19T01:09:08.624Z,66.56
2023-05-19T01:10:08.666Z,66.60
2023-05-19T01:11:08.677Z,66.38
2023-05-19T01:12:08.699Z,66.56
2023-05-19T01:13:08.729Z,67.04
2023-05-19T01:14:08.780Z,67.04
2023-05-19T01:15:08.788Z,67.61
2023-05-19T01:16:08.992Z,67.52
2023-05-19T01:17:08.850Z,67.23
2023-05-19T01:18:08.906Z,66.85
2023-05-19T01:19:08.983Z,67.04
2023-05-19T01:20:08.955Z,66.94
2023-05-19T01:21:08.981Z,67.42
2023-05-19T01:22:09.011Z,67.23
2023-05-19T01:23:09.045Z,67.23
2023-05-19T01:24:09.171Z,67.14
2023-05-19T01:25:09.118Z,67.14
2023-05-19T01:26:09.137Z,67.14
2023-05-19T01:27:09.167Z,67.23
2023-05-19T01:28:09.195Z,67.23
2023-05-19T01:29:09.258Z,67.80
2023-05-19T01:30:09.266Z,67.52
2023-05-19T01:31:09.287Z,67.80
2023-05-19T01:32:09.371Z,67.33
2023-05-19T01:33:09.434Z,67.42
2023-05-19T01:34:09.379Z,67.61
2023-05-19T01:35:09.416Z,68.28
2023-05-19T01:36:09.447Z,67.99
2023-05-19T01:37:09.478Z,67.90
2023-05-19T01:38:09.524Z,67.99
2023-05-19T01:39:09.536Z,67.99
2023-05-19T01:40:09.565Z,68.18
2023-05-19T01:41:09.596Z,67.99
2023-05-19T01:42:09.638Z,68.18
2023-05-19T01:43:09.665Z,68.09
2023-05-19T01:44:09.689Z,68.47
2023-05-19T01:45:09.733Z,68.76
2023-05-19T01:46:09.798Z,68.28
2023-05-19T01:47:09.786Z,68.47
2023-05-19T01:48:11.304Z,68.66
2023-05-19T01:49:09.857Z,68.66
2023-05-19T01:50:09.879Z,67.99
2023-05-19T01:51:09.921Z,68.38
2023-05-19T01:52:09.942Z,68.47
2023-05-19T01:53:09.978Z,68.38
2023-05-19T01:54:09.996Z,68.47
2023-05-19T01:55:10.040Z,68.28
2023-05-19T01:56:10.066Z,68.47
2023-05-19T01:57:10.103Z,68.47
2023-05-19T01:58:10.123Z,68.38
2023-05-19T01:59:10.162Z,68.57
2023-05-19T02:00:10.187Z,68.63
2023-05-19T02:01:10.239Z,68.47
2023-05-19T02:02:10.245Z,68.47
2023-05-19T02:03:10.294Z,68.47
2023-05-19T02:04:10.340Z,68.82
2023-05-19T02:05:10.339Z,68.44
2023-05-19T02:06:10.372Z,68.53
2023-05-19T02:07:10.462Z,68.53
2023-05-19T02:08:10.500Z,69.20
2023-05-19T02:09:10.496Z,69.10
2023-05-19T02:10:10.559Z,68.72
2023-05-19T02:11:10.562Z,69.10
2023-05-19T02:12:10.571Z,68.72
2023-05-19T02:13:10.583Z,68.91
2023-05-19T02:14:10.622Z,68.72
2023-05-19T02:15:10.662Z,68.91
2023-05-19T02:16:10.706Z,69.20
2023-05-19T02:17:10.708Z,69.39
2023-05-19T02:18:10.734Z,69.68
2023-05-19T02:19:10.798Z,69.39
2023-05-19T02:20:10.796Z,69.68
2023-05-19T02:21:10.834Z,69.77
2023-05-19T02:22:10.869Z,69.77
2023-05-19T02:23:10.886Z,69.87
2023-05-19T02:24:10.914Z,69.77
2023-05-19T02:25:10.945Z,69.39
2023-05-19T02:26:10.979Z,69.10
2023-05-19T02:27:11.017Z,69.77
2023-05-19T02:28:11.045Z,69.58
2023-05-19T02:29:11.067Z,69.10
2023-05-19T02:30:11.113Z,69.77
2023-05-19T02:31:11.127Z,69.58
2023-05-19T02:32:11.246Z,69.77
2023-05-19T02:33:11.270Z,69.29
2023-05-19T02:34:11.224Z,69.39
2023-05-19T02:35:11.251Z,69.58
2023-05-19T02:36:11.290Z,69.87
2023-05-19T02:37:11.315Z,69.68
2023-05-19T02:38:11.344Z,69.68
2023-05-19T02:39:11.371Z,69.48
2023-05-19T02:40:11.420Z,69.87
2023-05-19T02:41:11.441Z,69.87
2023-05-19T02:42:11.469Z,69.68
2023-05-19T02:43:11.499Z,69.68
2023-05-19T02:44:11.521Z,70.06
2023-05-19T02:45:11.568Z,70.06
2023-05-19T02:46:11.740Z,70.06
2023-05-19T02:47:11.620Z,70.15
2023-05-19T02:48:11.688Z,70.15
2023-05-19T02:49:11.680Z,70.15
2023-05-19T02:50:11.717Z,70.06
2023-05-19T02:51:11.756Z,69.87
2023-05-19T02:52:11.774Z,69.58
2023-05-19T02:53:11.799Z,69.58
2023-05-19T02:54:11.835Z,69.77
2023-05-19T02:55:11.871Z,69.48
2023-05-19T02:56:11.900Z,69.68
2023-05-19T02:57:11.918Z,69.48
2023-05-19T02:58:11.949Z,69.77
2023-05-19T02:59:12.012Z,69.68
2023-05-19T03:00:12.031Z,69.77
2023-05-19T03:01:12.046Z,69.48
2023-05-19T03:02:12.177Z,69.77
2023-05-19T03:03:12.180Z,69.87
2023-05-19T03:04:12.134Z,69.68
2023-05-19T03:05:12.202Z,69.39
2023-05-19T03:06:12.194Z,70.06
2023-05-19T03:07:12.226Z,69.68
2023-05-19T03:08:12.288Z,69.48
2023-05-19T03:09:12.290Z,69.58
2023-05-19T03:10:12.322Z,69.68
2023-05-19T03:11:12.349Z,69.68
2023-05-19T03:12:12.378Z,69.77
2023-05-19T03:13:12.415Z,69.77
2023-05-19T03:14:12.475Z,69.58
2023-05-19T03:15:12.464Z,69.48
2023-05-19T03:16:12.545Z,69.58
2023-05-19T03:17:12.563Z,69.77
2023-05-19T03:18:12.684Z,69.68
2023-05-19T03:19:12.769Z,69.58
2023-05-19T03:20:12.629Z,69.77
2023-05-19T03:21:12.654Z,69.68
2023-05-19T03:22:12.701Z,69.58
2023-05-19T03:23:12.727Z,69.58
2023-05-19T03:24:12.751Z,69.58
2023-05-19T03:25:12.784Z,69.48
2023-05-19T03:26:12.811Z,70.06
2023-05-19T03:27:12.840Z,69.96
2023-05-19T03:28:12.866Z,69.96
2023-05-19T03:29:12.901Z,70.06
2023-05-19T03:30:12.937Z,70.06
2023-05-19T03:31:12.961Z,69.96
2023-05-19T03:32:13.017Z,69.87
2023-05-19T03:33:13.179Z,69.96
2023-05-19T03:34:13.061Z,69.96
2023-05-19T03:35:13.080Z,69.96
2023-05-19T03:36:13.110Z,70.15
2023-05-19T03:37:13.157Z,69.87
2023-05-19T03:38:13.188Z,69.96
2023-05-19T03:39:13.206Z,70.06
2023-05-19T03:40:13.258Z,69.96
2023-05-19T03:41:13.271Z,70.53
2023-05-19T03:42:13.304Z,70.34
2023-05-19T03:43:13.334Z,70.53
2023-05-19T03:44:13.358Z,70.34
2023-05-19T03:45:13.396Z,70.72
2023-05-19T03:46:13.497Z,70.25
2023-05-19T03:47:13.450Z,70.34
2023-05-19T03:48:13.488Z,70.53
2023-05-19T03:49:13.511Z,70.53
2023-05-19T03:50:13.547Z,70.34
2023-05-19T03:51:13.578Z,70.44
2023-05-19T03:52:13.601Z,70.44
2023-05-19T03:53:13.658Z,70.34
2023-05-19T03:54:13.661Z,70.53
2023-05-19T03:55:13.702Z,70.25
2023-05-19T03:56:13.900Z,70.44
2023-05-19T03:57:13.798Z,70.25
2023-05-19T03:58:13.788Z,70.44
2023-05-19T03:59:13.821Z,70.44
2023-05-19T04:00:13.848Z,70.34
2023-05-19T04:01:13.879Z,70.25
2023-05-19T04:02:13.972Z,70.63
2023-05-19T04:03:14.140Z,70.25
2023-05-19T04:04:14.011Z,70.34
2023-05-19T04:05:13.995Z,70.25
2023-05-19T04:06:14.029Z,70.25
2023-05-19T04:07:14.051Z,70.25
2023-05-19T04:08:14.088Z,70.25
2023-05-19T04:09:14.117Z,70.63
2023-05-19T04:10:14.144Z,70.53
2023-05-19T04:11:14.174Z,69.96
2023-05-19T04:12:14.206Z,70.09
2023-05-19T04:13:14.246Z,70.09
2023-05-19T04:14:14.271Z,70.09
2023-05-19T04:15:14.309Z,70.09
2023-05-19T04:16:14.344Z,70.28
2023-05-19T04:17:14.380Z,70.38
2023-05-19T04:18:14.424Z,70.19
2023-05-19T04:19:14.460Z,70.57
2023-05-19T04:20:14.454Z,70.28
2023-05-19T04:21:14.489Z,70.00
2023-05-19T04:22:14.517Z,69.90
2023-05-19T04:23:14.547Z,70.09
2023-05-19T04:24:14.580Z,70.00
2023-05-19T04:25:14.653Z,69.52
2023-05-19T04:26:14.643Z,69.33
2023-05-19T04:27:14.664Z,69.71
2023-05-19T04:28:14.713Z,69.90
2023-05-19T04:29:14.731Z,70.09
2023-05-19T04:30:16.656Z,70.09
2023-05-19T04:31:14.883Z,70.00
2023-05-19T04:32:14.827Z,69.90
2023-05-19T04:33:14.850Z,69.52
2023-05-19T04:34:14.879Z,70.28
2023-05-19T04:35:14.923Z,70.00
2023-05-19T04:36:14.941Z,69.90
2023-05-19T04:37:14.970Z,69.52
2023-05-19T04:38:15.007Z,69.52
2023-05-19T04:39:15.046Z,69.71
2023-05-19T04:40:15.060Z,69.71
2023-05-19T04:41:15.093Z,69.71
2023-05-19T04:42:15.123Z,69.62
2023-05-19T04:43:15.174Z,69.52
2023-05-19T04:44:15.187Z,69.62
2023-05-19T04:45:15.214Z,69.71
2023-05-19T04:46:15.274Z,69.90
2023-05-19T04:47:15.321Z,69.81
2023-05-19T04:48:15.358Z,69.62
2023-05-19T04:49:15.340Z,69.33
2023-05-19T04:50:15.369Z,69.46
2023-05-19T04:51:15.399Z,68.98
2023-05-19T04:52:15.432Z,68.88
2023-05-19T04:53:15.466Z,68.88
2023-05-19T04:54:15.638Z,69.17
2023-05-19T04:55:15.527Z,68.98
2023-05-19T04:56:15.798Z,68.51
2023-05-19T04:57:22.748Z,68.51
2023-05-19T04:59:19.616Z,68.51
2023-05-19T05:00:19.639Z,68.70
2023-05-19T05:02:23.854Z,68.32
2023-05-19T05:03:23.774Z,67.93
2023-05-19T05:04:23.729Z,68.32
2023-05-19T05:05:23.763Z,68.03
2023-05-19T05:06:23.789Z,67.74
2023-05-19T05:07:23.820Z,67.55
2023-05-19T05:08:23.850Z,67.93
2023-05-19T05:09:23.908Z,68.22
2023-05-19T05:10:23.913Z,68.12
2023-05-19T05:11:23.948Z,67.93
2023-05-19T05:12:23.983Z,68.12
2023-05-19T05:13:24.005Z,68.41
2023-05-19T05:14:24.039Z,68.03
2023-05-19T05:15:24.077Z,67.93
2023-05-19T05:16:24.146Z,67.93
2023-05-19T05:17:24.158Z,67.46
2023-05-19T05:18:24.161Z,67.49
2023-05-19T05:19:24.222Z,67.77
2023-05-19T05:20:24.236Z,67.87
2023-05-19T05:21:24.247Z,68.16
2023-05-19T05:22:24.284Z,68.06
2023-05-19T05:23:24.313Z,68.35
2023-05-19T05:24:24.342Z,67.49
2023-05-19T05:25:24.382Z,68.26
2023-05-19T05:26:24.417Z,67.97
2023-05-19T05:27:24.446Z,68.44
2023-05-19T05:28:24.465Z,68.06
2023-05-19T05:29:24.500Z,67.58
2023-05-19T05:30:24.526Z,68.26
2023-05-19T05:31:24.561Z,67.87
2023-05-19T05:32:24.678Z,67.49
2023-05-19T05:33:24.766Z,67.49
2023-05-19T05:34:24.652Z,67.58
2023-05-19T05:35:24.684Z,67.58
2023-05-19T05:36:24.713Z,67.58
2023-05-19T05:37:24.748Z,67.68
2023-05-19T05:38:24.786Z,67.68
2023-05-19T05:39:24.809Z,67.58
2023-05-19T05:40:24.842Z,67.77
2023-05-19T05:41:24.877Z,67.49
2023-05-19T05:42:25.160Z,67.87
2023-05-19T05:43:24.945Z,67.77
2023-05-19T05:44:24.967Z,67.68
2023-05-19T05:45:25.039Z,67.49
2023-05-19T05:46:25.154Z,67.49
2023-05-19T05:47:25.211Z,67.62
2023-05-19T05:48:25.112Z,67.49
2023-05-19T05:49:25.122Z,67.52
2023-05-19T05:50:25.161Z,67.33
2023-05-19T05:51:25.184Z,67.05
2023-05-19T05:52:25.221Z,68.19
2023-05-19T05:53:25.252Z,67.05
2023-05-19T05:54:25.312Z,68.10
2023-05-19T05:55:25.314Z,67.33
2023-05-19T05:56:25.345Z,67.14
2023-05-19T05:57:25.392Z,66.95
2023-05-19T05:58:25.409Z,67.33
2023-05-19T05:59:25.435Z,67.33
2023-05-19T06:00:25.471Z,67.43
2023-05-19T06:01:25.514Z,66.95
2023-05-19T06:02:25.578Z,66.85
2023-05-19T06:03:25.621Z,67.08
2023-05-19T06:04:25.618Z,67.08
2023-05-19T06:05:25.676Z,67.18
2023-05-19T06:06:25.660Z,66.60
2023-05-19T06:07:25.702Z,66.60
2023-05-19T06:08:25.744Z,66.89
2023-05-19T06:09:25.776Z,66.79
2023-05-19T06:10:25.795Z,66.70
2023-05-19T06:11:25.823Z,66.89
2023-05-19T06:12:25.851Z,66.89
2023-05-19T06:13:25.891Z,66.60
2023-05-19T06:14:25.913Z,66.22
2023-05-19T06:15:25.954Z,66.13
2023-05-19T06:16:26.013Z,66.03
2023-05-19T06:17:26.083Z,65.74
2023-05-19T06:18:26.047Z,65.93
2023-05-19T06:19:26.101Z,65.45
2023-05-19T06:20:26.137Z,66.03
2023-05-19T06:21:26.146Z,66.44
2023-05-19T06:22:26.187Z,66.83
2023-05-19T06:23:26.200Z,66.25
2023-05-19T06:24:26.231Z,66.16
2023-05-19T06:25:26.302Z,66.35
2023-05-19T06:26:26.295Z,66.06
2023-05-19T06:27:26.339Z,66.35
2023-05-19T06:28:26.359Z,66.06
2023-05-19T06:29:26.398Z,65.97
2023-05-19T06:30:26.427Z,65.77
2023-05-19T06:31:26.526Z,65.87
2023-05-19T06:32:26.500Z,65.77
2023-05-19T06:33:29.008Z,65.77
2023-05-19T06:34:26.552Z,66.16
2023-05-19T06:35:26.586Z,65.87
2023-05-19T06:36:26.616Z,66.06
2023-05-19T06:37:26.650Z,65.97
2023-05-19T06:38:26.685Z,65.87
2023-05-19T06:39:26.717Z,65.97
2023-05-19T06:40:26.749Z,66.19
2023-05-19T06:41:26.784Z,66.19
2023-05-19T06:42:26.808Z,65.81
2023-05-19T06:43:26.843Z,66.00
2023-05-19T06:44:26.878Z,65.90
2023-05-19T06:45:26.913Z,65.90
2023-05-19T06:46:27.083Z,65.42
2023-05-19T06:47:26.984Z,65.71
2023-05-19T06:48:27.006Z,65.52
2023-05-19T06:49:27.035Z,65.52
2023-05-19T06:50:27.088Z,65.33
2023-05-19T06:51:27.104Z,64.95
2023-05-19T06:52:27.146Z,65.04
2023-05-19T06:53:27.187Z,64.95
2023-05-19T06:54:27.198Z,64.95
2023-05-19T06:55:27.229Z,65.45
2023-05-19T06:56:27.315Z,65.36
2023-05-19T06:57:27.306Z,64.98
2023-05-19T06:58:27.377Z,65.17
2023-05-19T06:59:27.369Z,64.88
2023-05-19T07:00:27.395Z,65.45
2023-05-19T07:01:27.458Z,65.45
2023-05-19T07:02:27.521Z,65.01
2023-05-19T07:03:27.652Z,64.63
2023-05-19T07:04:27.519Z,64.43
2023-05-19T07:05:27.556Z,64.50
2023-05-19T07:06:27.598Z,64.25
2023-05-19T07:07:27.621Z,64.25
2023-05-19T07:08:27.655Z,64.25
2023-05-19T07:09:27.686Z,64.15
2023-05-19T07:10:27.714Z,64.53
2023-05-19T07:11:27.755Z,64.43
2023-05-19T07:12:27.801Z,63.57
2023-05-19T07:13:27.853Z,63.39
2023-05-19T07:14:27.850Z,63.32
2023-05-19T07:15:27.886Z,63.32
2023-05-19T07:16:27.963Z,63.22
2023-05-19T07:17:28.046Z,63.42
2023-05-19T07:18:27.987Z,63.13
2023-05-19T07:19:28.048Z,63.70
2023-05-19T07:20:28.052Z,63.70
2023-05-19T07:21:28.089Z,63.70
2023-05-19T07:22:28.111Z,63.42
2023-05-19T07:23:28.153Z,63.89
2023-05-19T07:24:28.187Z,63.70
2023-05-19T07:25:28.212Z,63.13
2023-05-19T07:26:28.250Z,62.87
2023-05-19T07:27:28.279Z,62.87
2023-05-19T07:28:28.321Z,62.96
2023-05-19T07:29:28.359Z,63.06
2023-05-19T07:30:28.388Z,62.20
2023-05-19T07:31:28.454Z,62.30
2023-05-19T07:32:28.484Z,61.82
2023-05-19T07:33:28.488Z,62.13
2023-05-19T07:34:28.515Z,62.33
2023-05-19T07:35:28.554Z,61.37
2023-05-19T07:36:28.577Z,61.75
2023-05-19T07:37:28.620Z,61.46
2023-05-19T07:38:28.651Z,61.46
2023-05-19T07:39:28.712Z,60.82
2023-05-19T07:40:28.712Z,60.82
2023-05-19T07:41:28.766Z,60.53
2023-05-19T07:42:28.788Z,60.15
2023-05-19T07:43:28.813Z,60.08
2023-05-19T07:44:28.847Z,59.41
2023-05-19T07:45:28.889Z,59.03
2023-05-19T07:46:29.047Z,58.94
2023-05-19T07:47:28.985Z,58.26
2023-05-19T07:48:28.982Z,58.07
2023-05-19T07:49:29.020Z,57.88
2023-05-19T07:50:29.047Z,57.81
2023-05-19T07:51:29.092Z,57.23
2023-05-19T07:52:29.132Z,57.33
2023-05-19T07:53:29.172Z,57.14
2023-05-19T07:54:29.190Z,56.56
2023-05-19T07:55:29.221Z,56.76
2023-05-19T07:56:29.260Z,56.49
2023-05-19T07:57:29.303Z,55.73
2023-05-19T07:58:29.328Z,55.05
2023-05-19T07:59:29.374Z,55.34
2023-05-19T08:00:29.418Z,55.73
2023-05-19T08:01:29.441Z,55.05
2023-05-19T08:02:29.547Z,55.15
2023-05-19T08:03:29.619Z,55.34
2023-05-19T08:04:29.588Z,55.27
2023-05-19T08:05:29.577Z,54.69
2023-05-19T08:06:29.645Z,54.79
2023-05-19T08:07:29.636Z,54.89
2023-05-19T08:08:29.670Z,54.69
2023-05-19T08:09:29.709Z,54.69
2023-05-19T08:10:29.746Z,54.50
2023-05-19T08:11:29.782Z,54.69
2023-05-19T08:12:29.810Z,54.99
2023-05-19T08:13:29.851Z,54.60
2023-05-19T08:14:29.882Z,54.12
2023-05-19T08:15:29.944Z,54.14
2023-05-19T08:16:30.010Z,54.34
2023-05-19T08:17:30.011Z,54.34
2023-05-19T08:18:30.031Z,54.05
2023-05-19T08:19:30.162Z,53.88
2023-05-19T08:20:30.233Z,53.78
2023-05-19T08:21:30.145Z,52.92
2023-05-19T08:22:30.168Z,52.73
2023-05-19T08:23:30.219Z,53.11
2023-05-19T08:24:30.246Z,51.76
2023-05-19T08:25:30.277Z,52.18
2023-05-19T08:26:30.310Z,51.98
2023-05-19T08:27:30.347Z,51.12
2023-05-19T08:28:30.378Z,50.93
2023-05-19T08:29:30.414Z,51.12
2023-05-19T08:30:30.698Z,50.45
2023-05-19T08:31:30.515Z,50.45
2023-05-19T08:32:30.542Z,50.47
2023-05-19T08:33:30.557Z,50.09
2023-05-19T08:34:30.594Z,50.18
2023-05-19T08:35:30.628Z,49.51
2023-05-19T08:36:30.671Z,49.60
2023-05-19T08:37:33.372Z,49.63
2023-05-19T08:38:30.742Z,49.15
2023-05-19T08:39:30.770Z,48.86
2023-05-19T08:40:31.001Z,47.80
2023-05-19T08:41:30.849Z,48.18
2023-05-19T08:42:30.880Z,48.47
2023-05-19T08:43:30.920Z,48.97
2023-05-19T08:44:31.040Z,48.69
2023-05-19T08:45:31.157Z,48.49
2023-05-19T08:46:31.056Z,48.49
2023-05-19T08:47:31.122Z,48.49
2023-05-19T08:48:31.098Z,48.49
2023-05-19T08:49:31.130Z,48.61
2023-05-19T08:50:31.283Z,48.13
2023-05-19T08:51:31.212Z,47.94
2023-05-19T08:52:31.236Z,47.85
2023-05-19T08:53:33.854Z,47.58
2023-05-19T08:54:31.321Z,46.33
2023-05-19T08:55:31.556Z,45.75
2023-05-19T08:56:31.390Z,45.75
2023-05-19T08:57:31.427Z,45.84
2023-05-19T08:58:31.454Z,44.87
2023-05-19T08:59:31.507Z,43.72
2023-05-19T09:00:31.745Z,44.20
2023-05-19T09:01:31.800Z,44.39
2023-05-19T09:02:31.633Z,45.75
2023-05-19T09:03:31.693Z,44.10
2023-05-19T09:04:31.736Z,44.59
2023-05-19T09:05:32.034Z,43.81
2023-05-19T09:06:31.753Z,45.84
2023-05-19T09:07:31.788Z,46.03
2023-05-19T09:08:31.827Z,45.45
2023-05-19T09:09:31.872Z,45.75
2023-05-19T09:10:31.894Z,45.45
2023-05-19T09:11:31.936Z,44.68
2023-05-19T09:12:32.053Z,44.97
2023-05-19T09:13:32.009Z,44.39
2023-05-19T09:14:32.047Z,44.01
2023-05-19T09:15:32.263Z,44.49
2023-05-19T09:16:32.137Z,45.45
2023-05-19T09:17:32.190Z,44.39
2023-05-19T09:18:32.199Z,44.01
2023-05-19T09:19:32.410Z,44.59
2023-05-19T09:20:32.262Z,44.66
2023-05-19T09:21:32.347Z,44.10
2023-05-19T09:22:32.350Z,43.89
2023-05-19T09:23:32.377Z,43.70
2023-05-19T09:24:32.413Z,43.60
2023-05-19T09:25:32.673Z,44.66
2023-05-19T09:26:32.483Z,45.04
2023-05-19T09:27:32.523Z,44.66
2023-05-19T09:28:32.558Z,44.66
2023-05-19T09:29:32.603Z,44.85
2023-05-19T09:30:32.634Z,44.29
2023-05-19T09:31:32.704Z,43.62
2023-05-19T09:32:32.777Z,43.33
2023-05-19T09:33:32.768Z,43.91
2023-05-19T09:34:32.796Z,43.91
2023-05-19T09:35:33.022Z,43.52
2023-05-19T09:36:32.851Z,43.45
2023-05-19T09:37:32.893Z,43.06
2023-05-19T09:38:32.941Z,43.35
2023-05-19T09:39:32.963Z,42.19
2023-05-19T09:40:33.002Z,41.52
2023-05-19T09:41:33.046Z,40.65
2023-05-19T09:42:33.074Z,41.33
2023-05-19T09:43:33.119Z,41.23
2023-05-19T09:44:33.155Z,41.25
2023-05-19T09:45:33.330Z,40.47
2023-05-19T09:46:33.297Z,40.57
2023-05-19T09:47:33.272Z,41.42
2023-05-19T09:48:33.308Z,41.05
2023-05-19T09:49:33.332Z,40.47
2023-05-19T09:50:33.373Z,40.20
2023-05-19T09:51:33.409Z,40.11
2023-05-19T09:52:33.450Z,40.01
2023-05-19T09:53:33.519Z,39.72
2023-05-19T09:54:33.519Z,39.16
2023-05-19T09:55:33.782Z,39.14
2023-05-19T09:56:33.595Z,39.43
2023-05-19T09:57:33.740Z,39.55
2023-05-19T09:58:33.680Z,39.55
2023-05-19T09:59:34.246Z,39.34
2023-05-19T10:00:34.067Z,39.24
2023-05-19T10:01:33.863Z,39.34
2023-05-19T10:02:33.832Z,39.04
2023-05-19T10:03:33.884Z,39.24
2023-05-19T10:04:33.909Z,39.34
2023-05-19T10:05:34.395Z,39.06
2023-05-19T10:06:33.967Z,38.66
2023-05-19T10:07:34.004Z,38.85
2023-05-19T10:08:34.057Z,39.04
2023-05-19T10:09:34.083Z,38.85
2023-05-19T10:10:34.117Z,39.62
2023-05-19T10:11:34.160Z,39.53
2023-05-19T10:12:34.193Z,38.97
2023-05-19T10:13:34.233Z,39.45
2023-05-19T10:14:34.267Z,38.87
2023-05-19T10:15:40.754Z,39.36
2023-05-19T10:16:34.384Z,39.06
2023-05-19T10:17:34.410Z,38.48
2023-05-19T10:18:34.419Z,38.68
2023-05-19T10:19:34.543Z,38.20
2023-05-19T10:20:34.814Z,38.68
2023-05-19T10:21:34.536Z,38.87
2023-05-19T10:22:34.593Z,39.82
2023-05-19T10:23:34.615Z,39.55
2023-05-19T10:24:34.652Z,39.14
2023-05-19T10:25:34.811Z,39.24
2023-05-19T10:26:34.723Z,39.24
2023-05-19T10:27:34.759Z,39.34
2023-05-19T10:28:34.796Z,39.04
2023-05-19T10:29:34.883Z,38.85
2023-05-19T10:30:34.871Z,39.36
2023-05-19T10:31:34.947Z,38.48
2023-05-19T10:32:35.047Z,38.39
2023-05-19T10:33:34.982Z,38.18
2023-05-19T10:34:35.040Z,39.06
2023-05-19T10:35:35.343Z,38.37
2023-05-19T10:36:35.102Z,38.78
2023-05-19T10:37:35.130Z,38.28
2023-05-19T10:38:35.175Z,38.48
2023-05-19T10:39:35.210Z,38.66
2023-05-19T10:40:35.248Z,38.58
2023-05-19T10:41:35.296Z,38.29
2023-05-19T10:42:35.324Z,37.63
2023-05-19T10:43:35.370Z,38.02
2023-05-19T10:44:35.413Z,37.82
2023-05-19T10:45:35.819Z,37.13
2023-05-19T10:46:35.491Z,37.32
2023-05-19T10:47:35.551Z,37.90
2023-05-19T10:48:35.551Z,37.32
2023-05-19T10:49:35.605Z,36.46
2023-05-19T10:50:35.629Z,36.74
2023-05-19T10:51:35.671Z,36.65
2023-05-19T10:52:35.701Z,37.13
2023-05-19T10:53:35.753Z,36.92
2023-05-19T10:54:35.792Z,38.00
2023-05-19T10:55:35.821Z,38.48
2023-05-19T10:56:35.856Z,38.46
2023-05-19T10:57:35.948Z,38.66
2023-05-19T10:58:35.939Z,38.76
2023-05-19T10:59:35.988Z,38.66
2023-05-19T11:00:36.006Z,38.56
2023-05-19T11:01:36.197Z,39.04
2023-05-19T11:02:36.109Z,38.95
2023-05-19T11:03:36.138Z,38.56
2023-05-19T11:04:36.158Z,39.03
2023-05-19T11:05:36.194Z,38.74
2023-05-19T11:06:36.271Z,38.83
2023-05-19T11:07:36.266Z,39.32
2023-05-19T11:08:36.309Z,39.12
2023-05-19T11:09:40.501Z,39.51
2023-05-19T11:10:36.393Z,39.03
2023-05-19T11:11:36.422Z,39.41
2023-05-19T11:12:36.458Z,39.03
2023-05-19T11:13:36.701Z,39.61
2023-05-19T11:14:36.536Z,39.90
2023-05-19T11:15:36.589Z,39.70
2023-05-19T11:16:36.633Z,39.14
2023-05-19T11:17:36.670Z,38.64
2023-05-19T11:18:36.683Z,38.66
2023-05-19T11:19:36.731Z,38.37
2023-05-19T11:20:36.769Z,38.66
2023-05-19T11:21:36.799Z,38.68
2023-05-19T11:22:36.832Z,38.48
2023-05-19T11:23:36.907Z,38.48
2023-05-19T11:24:36.912Z,38.58
2023-05-19T11:25:36.947Z,38.28
2023-05-19T11:26:36.982Z,38.28
2023-05-19T11:27:37.021Z,38.08
2023-05-19T11:28:37.057Z,38.46
2023-05-19T11:29:37.095Z,38.95
2023-05-19T11:30:37.138Z,38.95
2023-05-19T11:31:37.207Z,38.46
2023-05-19T11:32:37.267Z,38.58
2023-05-19T11:33:37.252Z,38.20
2023-05-19T11:34:37.291Z,37.70
2023-05-19T11:35:37.433Z,37.98
2023-05-19T11:36:37.363Z,37.81
2023-05-19T11:37:37.397Z,37.71
2023-05-19T11:38:37.436Z,37.23
2023-05-19T11:39:37.472Z,37.32
2023-05-19T11:40:37.517Z,37.62
2023-05-19T11:41:37.550Z,37.13
2023-05-19T11:42:37.637Z,37.23
2023-05-19T11:43:37.625Z,37.90
2023-05-19T11:44:37.663Z,37.70
2023-05-19T11:45:37.756Z,37.50
2023-05-19T11:46:37.758Z,37.60
2023-05-19T11:47:50.913Z,38.28
2023-05-19T11:48:37.923Z,37.88
2023-05-19T11:49:37.858Z,37.67
2023-05-19T11:50:37.890Z,38.35
2023-05-19T11:51:37.922Z,38.74
2023-05-19T11:52:37.965Z,38.35
2023-05-19T11:53:38.005Z,38.06
2023-05-19T11:54:38.038Z,38.64
2023-05-19T11:55:38.076Z,38.35
2023-05-19T11:56:38.114Z,39.03
2023-05-19T11:57:38.163Z,38.76
2023-05-19T11:58:38.188Z,38.37
2023-05-19T11:59:38.231Z,38.10
2023-05-19T12:00:38.298Z,37.71
2023-05-19T12:01:38.300Z,37.32
2023-05-19T12:02:38.465Z,36.94
2023-05-19T12:03:38.519Z,37.15
2023-05-19T12:04:38.462Z,36.96
2023-05-19T12:05:41.862Z,36.18
2023-05-19T12:06:38.517Z,36.18
2023-05-19T12:07:38.526Z,36.28
2023-05-19T12:08:38.564Z,36.57
2023-05-19T12:09:38.612Z,35.89
2023-05-19T12:10:38.667Z,36.66
2023-05-19T12:11:38.676Z,36.57
2023-05-19T12:12:38.715Z,35.99
2023-05-19T12:13:38.763Z,36.18
2023-05-19T12:14:38.802Z,36.28
2023-05-19T12:15:39.003Z,36.28
2023-05-19T12:16:38.885Z,36.28
2023-05-19T12:17:38.945Z,36.38
2023-05-19T12:18:39.030Z,36.66
2023-05-19T12:19:38.979Z,36.57
2023-05-19T12:20:39.030Z,36.28
2023-05-19T12:21:39.073Z,36.57
2023-05-19T12:22:39.102Z,36.47
2023-05-19T12:23:39.158Z,36.08
2023-05-19T12:24:39.172Z,36.28
2023-05-19T12:25:39.205Z,35.89
2023-05-19T12:26:39.252Z,35.89
2023-05-19T12:27:39.302Z,35.88
2023-05-19T12:28:39.321Z,36.26
2023-05-19T12:29:39.357Z,36.07
2023-05-19T12:30:39.414Z,36.26
2023-05-19T12:31:39.458Z,35.95
2023-05-19T12:32:39.502Z,36.07
2023-05-19T12:33:39.513Z,36.63
2023-05-19T12:34:39.557Z,35.97
2023-05-19T12:35:39.584Z,35.78
2023-05-19T12:36:39.655Z,35.78
2023-05-19T12:37:39.688Z,35.39
2023-05-19T12:38:39.721Z,36.07
2023-05-19T12:39:39.736Z,35.58
2023-05-19T12:40:39.777Z,35.02
2023-05-19T12:41:39.813Z,35.12
2023-05-19T12:42:39.851Z,34.54
2023-05-19T12:43:39.887Z,35.23
2023-05-19T12:44:39.926Z,34.27
2023-05-19T12:45:39.971Z,34.17
2023-05-19T12:46:40.002Z,33.95
2023-05-19T12:47:40.079Z,34.73
2023-05-19T12:48:40.088Z,34.63
2023-05-19T12:49:40.117Z,35.12
2023-05-19T12:50:40.152Z,34.54
2023-05-19T12:51:40.189Z,34.54
2023-05-19T12:52:40.227Z,34.92
2023-05-19T12:53:40.269Z,34.73
2023-05-19T12:54:40.329Z,35.58